createdAt,value
2022-08-18T00:04:52.807Z,8.40
2022-08-18T00:09:58.781Z,8.00
2022-08-18T00:15:05.660Z,7.20
2022-08-18T00:20:11.490Z,8.00
2022-08-18T00:25:15.420Z,8.00
2022-08-18T00:30:19.262Z,8.00
2022-08-18T00:35:26.111Z,8.60
2022-08-18T00:40:37.718Z,8.80
2022-08-18T00:45:42.298Z,7.60
2022-08-18T00:50:47.997Z,8.00
2022-08-18T00:55:53.719Z,8.80
2022-08-18T01:00:57.003Z,6.80
2022-08-18T01:06:03.345Z,9.20
2022-08-18T01:11:06.335Z,8.00
2022-08-18T01:16:23.263Z,7.60
2022-08-18T01:21:45.655Z,8.00
2022-08-18T01:26:51.207Z,8.00
2022-08-18T01:31:56.291Z,9.00
2022-08-18T01:36:59.418Z,8.00
2022-08-18T01:42:04.779Z,8.00
2022-08-18T01:47:07.729Z,8.80
2022-08-18T01:52:10.730Z,8.00
2022-08-18T01:57:15.258Z,7.60
2022-08-18T02:02:24.493Z,8.00
2022-08-18T02:07:32.655Z,8.00
2022-08-18T02:12:40.695Z,7.80
2022-08-18T02:17:44.926Z,8.00
2022-08-18T02:22:49.498Z,8.40
2022-08-18T02:27:53.684Z,7.00
2022-08-18T02:32:59.038Z,6.60
2022-08-18T02:38:01.808Z,8.00
2022-08-18T02:43:10.283Z,7.00
2022-08-18T02:48:13.806Z,8.00
2022-08-18T02:53:21.968Z,7.80
2022-08-18T02:58:29.320Z,7.00
2022-08-18T03:03:34.489Z,7.60
2022-08-18T03:08:37.255Z,8.40
2022-08-18T03:13:41.315Z,7.60
2022-08-18T03:18:44.754Z,6.60
2022-08-18T03:24:00.938Z,8.80
2022-08-18T03:29:05.796Z,9.00
2022-08-18T03:34:08.657Z,9.00
2022-08-18T03:39:12.331Z,8.60
2022-08-18T03:44:16.508Z,8.00
2022-08-18T03:49:20.349Z,10.00
2022-08-18T03:54:23.211Z,11.00
2022-08-18T03:59:27.367Z,11.20
2022-08-18T04:04:30.499Z,9.80
2022-08-18T04:09:33.596Z,8.40
2022-08-18T04:14:37.645Z,9.40
2022-08-18T04:19:40.765Z,10.00
2022-08-18T04:24:44.568Z,10.00
2022-08-18T04:29:49.485Z,12.80
2022-08-18T04:34:52.231Z,12.00
2022-08-18T04:39:54.966Z,11.00
2022-08-18T04:44:59.145Z,11.80
2022-08-18T04:50:02.056Z,10.80
2022-08-18T04:55:05.628Z,12.00
2022-08-18T05:00:12.033Z,11.20
2022-08-18T05:05:14.794Z,11.00
2022-08-18T05:10:18.521Z,11.80
2022-08-18T05:15:22.682Z,11.00
2022-08-18T05:20:25.397Z,12.00
2022-08-18T05:25:29.791Z,11.00
2022-08-18T05:30:33.933Z,11.00
2022-08-18T05:35:39.337Z,10.80
2022-08-18T05:40:42.245Z,11.00
2022-08-18T05:45:46.613Z,10.00
2022-08-18T05:50:49.497Z,11.60
2022-08-18T05:56:16.624Z,11.60
2022-08-18T06:01:22.625Z,13.80
2022-08-18T06:06:27.851Z,11.00
2022-08-18T06:11:30.580Z,12.67
2022-08-18T06:16:44.585Z,12.00
2022-08-18T06:21:50.875Z,13.00
2022-08-18T06:26:58.104Z,12.80
2022-08-18T06:32:07.470Z,14.40
2022-08-18T06:37:12.688Z,12.40
2022-08-18T06:42:18.376Z,12.60
2022-08-18T06:47:28.420Z,13.40
2022-08-18T06:52:33.570Z,13.00
2022-08-18T06:57:38.115Z,13.20
2022-08-18T07:02:48.942Z,13.00
2022-08-18T07:08:07.333Z,14.00
2022-08-18T07:13:17.250Z,13.40
2022-08-18T07:18:26.451Z,13.00
2022-08-18T07:23:31.890Z,14.00
2022-08-18T07:28:36.771Z,12.80
2022-08-18T07:33:41.006Z,15.00
2022-08-18T07:38:46.433Z,13.60
2022-08-18T07:43:57.920Z,12.20
2022-08-18T07:49:05.363Z,13.20
2022-08-18T07:54:25.403Z,13.00
2022-08-18T07:59:35.977Z,14.00
2022-08-18T08:04:43.412Z,12.40
2022-08-18T08:09:52.179Z,12.40
2022-08-18T08:14:59.308Z,13.40
2022-08-18T08:20:12.863Z,13.20
2022-08-18T08:25:44.584Z,13.60
2022-08-18T08:30:44.119Z,14.00
2022-08-18T08:35:50.954Z,14.00
2022-08-18T08:40:55.272Z,13.80
2022-08-18T08:46:08.198Z,14.80
2022-08-18T08:51:30.231Z,13.80
2022-08-18T08:56:36.168Z,12.20
2022-08-18T09:01:44.755Z,13.00
2022-08-18T09:06:52.354Z,13.00
2022-08-18T09:12:26.532Z,12.00
2022-08-18T09:17:45.662Z,13.00
2022-08-18T09:22:52.148Z,12.00
2022-08-18T09:28:10.909Z,12.00
2022-08-18T09:33:32.452Z,11.40
2022-08-18T09:38:56.280Z,12.20
2022-08-18T09:44:17.779Z,12.40
2022-08-18T09:49:47.605Z,10.00
2022-08-18T09:54:54.700Z,9.80
2022-08-18T10:00:24.411Z,13.00
2022-08-18T10:05:31.240Z,10.00
2022-08-18T10:11:01.645Z,11.60
2022-08-18T10:16:10.450Z,11.80
2022-08-18T10:21:20.971Z,11.80
2022-08-18T10:26:55.442Z,11.40
2022-08-18T10:32:49.486Z,12.80
2022-08-18T10:37:58.435Z,10.00
2022-08-18T10:43:26.739Z,10.40
2022-08-18T10:48:34.968Z,9.20
2022-08-18T10:53:46.433Z,10.00
2022-08-18T10:59:08.297Z,9.20
2022-08-18T11:10:04.852Z,9.40
2022-08-18T11:15:22.376Z,9.00
2022-08-18T11:20:30.042Z,10.40
2022-08-18T11:25:35.571Z,10.20
2022-08-18T11:36:01.760Z,9.00
2022-08-18T11:41:17.339Z,10.00
2022-08-18T11:51:55.983Z,8.40
2022-08-18T11:57:42.022Z,8.00
2022-08-18T12:02:50.239Z,9.20
2022-08-18T12:07:57.542Z,8.60
2022-08-18T12:13:02.811Z,9.00
2022-08-18T12:18:06.340Z,9.20
2022-08-18T12:23:09.165Z,8.40
2022-08-18T12:28:13.253Z,10.00
2022-08-18T12:33:17.629Z,9.00
2022-08-18T12:38:28.258Z,9.20
2022-08-18T12:43:32.651Z,8.60
2022-08-18T12:48:37.789Z,8.80
2022-08-18T12:53:58.517Z,8.00
2022-08-18T12:59:06.301Z,10.00
2022-08-18T13:04:13.280Z,8.80
2022-08-18T13:09:34.779Z,8.00
2022-08-18T13:14:40.983Z,8.00
2022-08-18T13:19:46.460Z,9.00
2022-08-18T13:24:49.232Z,7.00
2022-08-18T13:29:56.553Z,8.00
2022-08-18T13:34:59.517Z,8.00
2022-08-18T13:40:07.212Z,7.60
2022-08-18T13:45:22.908Z,8.00
2022-08-18T13:50:29.981Z,8.00
2022-08-18T13:55:33.013Z,8.00
2022-08-18T14:00:37.278Z,8.60
2022-08-18T14:05:51.757Z,7.80
2022-08-18T14:10:57.270Z,7.00
2022-08-18T14:16:02.028Z,8.00
2022-08-18T14:21:23.608Z,7.00
2022-08-18T14:26:44.218Z,8.40
2022-08-18T14:31:48.991Z,6.80
2022-08-18T14:36:56.455Z,8.20
2022-08-18T14:41:59.754Z,7.60
2022-08-18T14:47:07.441Z,7.20
2022-08-18T14:52:14.016Z,7.00
2022-08-18T14:57:17.356Z,7.00
2022-08-18T15:02:27.036Z,6.80
2022-08-18T15:07:29.785Z,8.40
2022-08-18T15:12:35.739Z,8.40
2022-08-18T15:17:40.258Z,7.80
2022-08-18T15:23:01.028Z,8.00
2022-08-18T15:28:04.593Z,7.20
2022-08-18T15:33:10.395Z,7.80
2022-08-18T15:38:19.058Z,8.40
2022-08-18T15:43:21.983Z,8.60
2022-08-18T15:48:29.748Z,8.20
2022-08-18T15:53:32.909Z,9.00
2022-08-18T15:58:35.887Z,9.00
2022-08-18T16:03:39.985Z,9.80
2022-08-18T16:08:43.236Z,10.20
2022-08-18T16:13:46.253Z,8.20
2022-08-18T16:18:50.986Z,11.80
2022-08-18T16:23:55.864Z,10.00
2022-08-18T16:29:01.647Z,10.80
2022-08-18T16:34:06.023Z,9.00
2022-08-18T16:39:08.771Z,10.00
2022-08-18T16:44:11.970Z,10.20
2022-08-18T16:49:16.113Z,10.60
2022-08-18T16:54:18.889Z,10.40
2022-08-18T16:59:39.024Z,13.00
2022-08-18T17:04:43.097Z,14.50
2022-08-18T17:09:45.886Z,15.00
2022-08-18T17:14:52.001Z,15.75
2022-08-18T17:19:56.306Z,14.50
2022-08-18T17:25:00.186Z,16.00
2022-08-18T17:30:05.533Z,17.25
2022-08-18T17:35:14.577Z,15.00
2022-08-18T17:40:20.019Z,16.25
2022-08-18T17:45:24.526Z,15.00
2022-08-18T17:50:49.023Z,15.00
2022-08-18T17:55:53.256Z,19.25
2022-08-18T18:00:55.950Z,16.75
2022-08-18T18:06:03.670Z,15.25
2022-08-18T18:11:11.062Z,20.50
2022-08-18T18:16:21.507Z,20.50
2022-08-18T18:21:55.315Z,19.50
2022-08-18T18:26:49.035Z,21.00
2022-08-18T18:32:00.716Z,21.00
2022-08-18T18:37:05.021Z,37.50
2022-08-18T18:42:15.720Z,31.00
2022-08-18T18:47:34.830Z,24.33
2022-08-18T18:52:43.454Z,22.00
2022-08-18T18:57:49.579Z,21.00
2022-08-18T19:03:03.693Z,21.00
2022-08-18T19:08:16.666Z,21.00
2022-08-18T19:13:24.817Z,20.25
2022-08-18T19:18:38.606Z,18.00
2022-08-18T19:23:45.411Z,18.00
2022-08-18T19:29:11.864Z,17.50
2022-08-18T19:34:13.737Z,16.50
2022-08-18T19:39:24.589Z,17.00
2022-08-18T19:44:38.054Z,16.00
2022-08-18T19:49:47.028Z,16.75
2022-08-18T19:54:59.143Z,16.25
2022-08-18T20:00:25.126Z,17.50
2022-08-18T20:05:31.734Z,20.25
2022-08-18T20:10:48.671Z,19.00
2022-08-18T20:16:42.599Z,18.25
2022-08-18T20:21:48.238Z,18.25
2022-08-18T20:26:52.886Z,19.00
2022-08-18T20:32:00.174Z,17.25
2022-08-18T20:37:10.046Z,19.00
2022-08-18T20:42:51.616Z,19.75
2022-08-18T20:48:27.639Z,19.50
2022-08-18T20:53:55.415Z,17.25
2022-08-18T20:59:08.526Z,19.50
2022-08-18T21:04:11.832Z,19.50
2022-08-18T21:09:18.117Z,20.00
2022-08-18T21:14:29.773Z,19.50
2022-08-18T21:19:32.792Z,18.00
2022-08-18T21:24:36.474Z,20.00
2022-08-18T21:29:47.170Z,16.00
2022-08-18T21:34:52.137Z,16.00
2022-08-18T21:39:57.510Z,17.75
2022-08-18T21:45:01.915Z,19.25
2022-08-18T21:50:10.693Z,16.00
2022-08-18T21:55:26.393Z,15.00
2022-08-18T22:00:31.261Z,16.25
2022-08-18T22:05:57.968Z,13.40
2022-08-18T22:12:01.551Z,16.75
2022-08-18T22:17:33.468Z,14.50
2022-08-18T22:22:53.843Z,15.00
2022-08-18T22:27:59.065Z,16.00
2022-08-18T22:33:03.177Z,15.25
2022-08-18T22:38:05.940Z,15.50
2022-08-18T22:43:08.752Z,16.00
2022-08-18T22:48:13.537Z,15.75
2022-08-18T22:53:16.372Z,16.00
2022-08-18T22:58:25.945Z,17.50
2022-08-18T23:03:34.503Z,18.50
2022-08-18T23:08:54.588Z,16.00
2022-08-18T23:13:58.961Z,18.00
2022-08-18T23:19:03.506Z,17.25
2022-08-18T23:24:06.480Z,14.75
2022-08-18T23:29:10.813Z,16.75
2022-08-18T23:34:17.433Z,18.00
2022-08-18T23:39:20.101Z,18.00
2022-08-18T23:44:23.735Z,18.75
2022-08-18T23:49:31.489Z,17.50
2022-08-18T23:54:35.306Z,17.00
2022-08-18T23:59:38.047Z,19.00
